Loging...

KPDC, Korea Polar Data Center

Korea Polar Data Center Scientific observations and results from Antarctica shall
be exchanged and made freely available

Keyword Search

Advanced Search

Search 2,208 data out of 28,363

Metadata Search Results1
No. Title Reg. Date
1 [KOPRI-KOREAMET-00000068]Elephant Moraine 13002 2019-12-05
2 [KOPRI-KOREAMET-00000163]Elephant Moraine 14031 2019-11-20
3 [KOPRI-KPDC-00000765]Climate Measurement Around the King Sejong Station, Antarctica in 2017 2019-10-29
4 [KOPRI-KPDC-00001288]Meltwater sampling from Barton Peninsula (MW1) 2019-10-21
5 [KOPRI-KPDC-00001286]Meltwater sampling from Barton Peninsula (MW2) 2019-10-21
6 [KOPRI-KPDC-00001285]Meltwater sampling from Barton Peninsula (MW3) 2019-10-21
7 [KOPRI-KPDC-00001283]The measurement of geomagnetic field at King Sejong Station, Antarctica at 2019 2019-10-21
8 [KOPRI-KPDC-00001282]All-Sky image data of the airglow emissions at Jang Bogo Station, Antarctica at 2019 2019-10-21
9 [KOPRI-KPDC-00001281]Vector magnetometer data at Jang Bogo station, Antarctica at 2019 2019-10-21
10 [KOPRI-KPDC-00001280]All-Sky image data of the airglow emissions at Jang Bogo Station, Antarctica at 2018 2019-10-21
11 [KOPRI-KPDC-00001279]Interaction map between micro-environments and biological responses in terrestrial ecosystem of KGL01 in Barton Peninsula, King George Island 2019-10-17
12 [KOPRI-KPDC-00001278]Neutral winds and temperature data in the MLT region at King Sejong Station, Antarctica at 2019 2019-10-17
13 [KOPRI-KPDC-00001277]Ionospheric total electron content monitoring system over KSS Station, Antarctica at 2019 2019-10-17
14 [KOPRI-KPDC-00001276]Neutral wind and temperature of upper atmosphere at King Sejong Station, Antarctica at 2019 2019-10-17
15 [KOPRI-KPDC-00001275]All-Sky image data of the airglow emissions at King Sejong Station, Antarctica at 2019 2019-10-17
16 [KOPRI-KPDC-00001274]Plasma density and drift velocity in ionoephre over Jang Bogo Station, Antarctica at 2019 2019-10-17
17 [KOPRI-KPDC-00001273]Neutral wind data from FPI installed at Jang Bogo Station, Antarctica at 2019 2019-10-17
18 [KOPRI-KPDC-00001272]Neutron Monitor installed at Jang Bogo Station, Antarctica at 2019 2019-10-17
19 [KOPRI-KPDC-00001271]Ionospheric total electron content monitoring system over Jang Bogo Station, Antarctica at 2019 2019-10-17
20 [KOPRI-KPDC-00001270]Proton aurora images at 2019 2019-10-17
21 [KOPRI-KPDC-00001268]The measurement of geomagnetic field at 2019 2019-10-17
22 [KOPRI-KPDC-00001260] Evaluation test of skin wrinkles improvement effect of Eico glycerol (EG) 2019-10-15
23 [KOPRI-KPDC-00001256]Genes involved in metabolites production (2019) 2019-10-15
24 [KOPRI-KPDC-00001234]Meteorological data at the Jang Bogo Station, Antarctica in 2019 2019-10-02
25 [KOPRI-KPDC-00001233]Profile of Meteorological data at the Jang Bogo Station, Antarctica in 2019 2019-10-02
26 [KOPRI-KOREAMET-00000145]Elephant Moraine 14013 2019-09-30
27 [KOPRI-KOREAMET-00000206]Elephant Moraine 14074 2019-09-30
28 [KOPRI-KOREAMET-00000129]Reckling Peak 14003 2019-09-30
29 [KOPRI-KOREAMET-00000131]Reckling Peak 14005 2019-09-30
30 [KOPRI-KOREAMET-00000149]Elephant Moraine 14017 2019-09-30
31 [KOPRI-KOREAMET-00000057]Frontier Mountain 10097 2019-09-30
32 [KOPRI-KOREAMET-00000060]Frontier Mountain 10102 2019-09-30
33 [KOPRI-KOREAMET-00000014]Thiel Mountains 07009 2019-09-30
34 [KOPRI-KOREAMET-00000084]Elephant Moraine 13018 2019-09-30
35 [KOPRI-KOREAMET-00000066]Mount DeWitt 12007 2019-09-30
36 [KOPRI-ANTAGEN-00000007]Takifugu obscurus 2019-09-27
37 [KOPRI-KPDC-00001182]Temporal variation of phytoplankton in the surface water of Marian Cove, King George Island, Antarctica, 2018 2019-09-26
38 [KOPRI-KPDC-00001183]Temporal variation of phytoplankton in the surface water of Marian Cove, King George Island, Antarctica, 2017 2019-09-26
39 [KOPRI-KPDC-00001177]Air borne Ice radar survey data of Korean route from David glacier, Antarctica in 2018 2019-09-25
40 [KOPRI-ROCK-00001221]J12121505 2019-09-23
41 [KOPRI-ROCK-00001220]J12121504 2019-09-23
42 [KOPRI-ROCK-00001217]J12121501 2019-09-23
43 [KOPRI-ROCK-00001219]J12121503 2019-09-23
44 [KOPRI-ROCK-00001224]J12121508 2019-09-23
45 [KOPRI-ROCK-00001218]J12121502 2019-09-23
46 [KOPRI-ROCK-00001222]J12121506 2019-09-23
47 [KOPRI-ROCK-00001223]J12121507 2019-09-23
48 [KOPRI-ROCK-00001226]J12121702 2019-09-23
49 [KOPRI-ROCK-00001225]J12121701 2019-09-23
50 [KOPRI-ROCK-00001227]J12121801 2019-09-23
51 [KOPRI-ROCK-00001228]J12121802 2019-09-23
52 [KOPRI-ROCK-00001229]J12121803 2019-09-23
53 [KOPRI-ROCK-00001231]J12121805 2019-09-23
54 [KOPRI-ROCK-00001232]J12121806 2019-09-23
55 [KOPRI-ROCK-00001230]J12121804 2019-09-23
56 [KOPRI-ROCK-00001233]J12121807 2019-09-23
57 [KOPRI-ROCK-00001242]J12123006 2019-09-23
58 [KOPRI-ROCK-00001236]J12122401 2019-09-23
59 [KOPRI-ROCK-00001234]J12122101 2019-09-23
60 [KOPRI-ROCK-00001237]J12123001 2019-09-23
61 [KOPRI-ROCK-00001238]J12123002 2019-09-23
62 [KOPRI-ROCK-00001239]J12123003 2019-09-23
63 [KOPRI-ROCK-00001241]J12123005 2019-09-23
64 [KOPRI-ROCK-00001240]J12123004 2019-09-23
65 [KOPRI-ROCK-00001235]J12122301 2019-09-23
66 [KOPRI-ROCK-00001244]J13010101 2019-09-23
67 [KOPRI-ROCK-00001243]J12123007 2019-09-23
68 [KOPRI-ROCK-00001251]J13010109 2019-09-23
69 [KOPRI-ROCK-00001248]J13010105 2019-09-23
70 [KOPRI-ROCK-00001245]J13010102 2019-09-23
71 [KOPRI-ROCK-00001249]J13010106 2019-09-23
72 [KOPRI-ROCK-00001246]J13010103 2019-09-23
73 [KOPRI-ROCK-00001247]J13010104 2019-09-23
74 [KOPRI-ROCK-00001250]J13010107 2019-09-23
75 [KOPRI-ROCK-00001259]J14111201 2019-09-23
76 [KOPRI-ROCK-00001260]J14111202 2019-09-23
77 [KOPRI-ROCK-00001253]J14110701 2019-09-23
78 [KOPRI-ROCK-00001254]J14110702 2019-09-23
79 [KOPRI-ROCK-00001256]J14110704 2019-09-23
80 [KOPRI-ROCK-00001255]J14110703 2019-09-23
81 [KOPRI-ROCK-00001258]J14110902 2019-09-23
82 [KOPRI-ROCK-00001257]J14110901 2019-09-23
83 [KOPRI-ROCK-00001252]J13010110 2019-09-23
84 [KOPRI-ROCK-00001268]J14111304 2019-09-23
85 [KOPRI-ROCK-00001263]J14111205 2019-09-23
86 [KOPRI-ROCK-00001265]J14111301 2019-09-23
87 [KOPRI-ROCK-00001264]J14111206 2019-09-23
88 [KOPRI-ROCK-00001267]J14111303 2019-09-23
89 [KOPRI-ROCK-00001261]J14111203 2019-09-23
90 [KOPRI-ROCK-00001262]J14111204 2019-09-23
91 [KOPRI-ROCK-00001266]J14111302 2019-09-23
92 [KOPRI-ROCK-00001269]J14111305 2019-09-23
93 [KOPRI-ROCK-00001278]J14113003 2019-09-23
94 [KOPRI-ROCK-00001277]J14113002 2019-09-23
95 [KOPRI-ROCK-00001276]J14113001 2019-09-23
96 [KOPRI-ROCK-00001275]J14112701 2019-09-23
97 [KOPRI-ROCK-00001272]J14111308 2019-09-23
98 [KOPRI-ROCK-00001274]J14111310 2019-09-23
99 [KOPRI-ROCK-00001271]J14111307 2019-09-23
100 [KOPRI-ROCK-00001273]J14111309 2019-09-23